Time;durP1;ratioP1;P1;durP2;ratioP2;P2;SDS_P1;SDS_P2;PMS_P1;PMS_P2;Temp;Humidity;BMP_temperature;BMP_pressure;BME280_temperature;BME280_humidity;BME280_pressure;Samples;Min_cycle;Max_cycle;Signal;HPM_P1;HPM_P2
2022/08/21 00:01:40;;;;;;;2.38;2.00;;;;;;;;;;4507249;28;20123;-61
2022/08/21 00:03:51;;;;;;;2.75;2.05;;;;;;;;;;4499621;28;20065;-61
2022/08/21 00:06:02;;;;;;;2.20;1.90;;;;;;;;;;4505652;28;20499;-62
2022/08/21 00:08:13;;;;;;;2.20;1.98;;;;;;;;;;4505355;28;20139;-62
2022/08/21 00:10:24;;;;;;;2.78;2.00;;;;;;;;;;4505378;28;20039;-62
2022/08/21 00:12:34;;;;;;;2.63;2.10;;;;;;;;;;4504376;28;20488;-62
2022/08/21 00:14:45;;;;;;;3.08;2.30;;;;;;;;;;4506666;28;20503;-62
2022/08/21 00:16:56;;;;;;;3.05;2.40;;;;;;;;;;4503145;28;20038;-61
2022/08/21 00:19:07;;;;;;;2.85;2.40;;;;;;;;;;4504726;28;20492;-61
2022/08/21 00:21:17;;;;;;;2.60;2.35;;;;;;;;;;4501561;28;20510;-62
2022/08/21 00:23:28;;;;;;;3.78;2.65;;;;;;;;;;4500189;28;20542;-61
2022/08/21 00:25:39;;;;;;;2.90;2.60;;;;;;;;;;4506553;28;20048;-61
2022/08/21 00:27:49;;;;;;;2.70;2.50;;;;;;;;;;4505898;28;20044;-61
2022/08/21 00:30:00;;;;;;;3.30;2.90;;;;;;;;;;4506353;28;20034;-61
2022/08/21 00:32:11;;;;;;;3.33;2.65;;;;;;;;;;4503390;28;20180;-62
2022/08/21 00:34:21;;;;;;;3.42;2.75;;;;;;;;;;4506425;28;20126;-61
2022/08/21 00:36:32;;;;;;;3.22;2.92;;;;;;;;;;4506661;28;20045;-61
2022/08/21 00:38:42;;;;;;;3.97;2.75;;;;;;;;;;4510438;28;20486;-61
2022/08/21 00:40:55;;;;;;;3.75;2.50;;;;;;;;;;4509869;28;20038;-61
2022/08/21 00:43:10;;;;;;;3.22;2.72;;;;;;;;;;4509073;28;20593;-62
2022/08/21 00:45:23;;;;;;;3.38;2.60;;;;;;;;;;4510983;28;20038;-62
2022/08/21 00:47:34;;;;;;;3.42;2.88;;;;;;;;;;4503354;28;20113;-61
2022/08/21 00:49:45;;;;;;;3.13;2.50;;;;;;;;;;4509860;28;20025;-62
2022/08/21 00:51:58;;;;;;;3.70;2.70;;;;;;;;;;4506772;28;20038;-61
2022/08/21 00:54:09;;;;;;;3.47;2.60;;;;;;;;;;4509103;28;20038;-62
2022/08/21 00:56:21;;;;;;;3.20;2.80;;;;;;;;;;4518641;28;20056;-61
2022/08/21 00:58:32;;;;;;;3.45;2.67;;;;;;;;;;4489896;28;20034;-62
2022/08/21 01:00:45;;;;;;;3.35;2.35;;;;;;;;;;4509314;28;20141;-61
2022/08/21 01:03:01;;;;;;;3.40;2.60;;;;;;;;;;4507048;28;20038;-61
2022/08/21 01:05:12;;;;;;;3.00;2.40;;;;;;;;;;4508990;28;20097;-61
2022/08/21 01:07:22;;;;;;;2.55;2.28;;;;;;;;;;4507806;28;20108;-61
2022/08/21 01:09:33;;;;;;;3.20;2.33;;;;;;;;;;4507635;28;20041;-62
2022/08/21 01:11:43;;;;;;;3.65;2.60;;;;;;;;;;4506717;28;20040;-62
2022/08/21 01:13:54;;;;;;;3.20;2.53;;;;;;;;;;4507957;28;20033;-62
2022/08/21 01:16:08;;;;;;;3.60;2.40;;;;;;;;;;4508339;28;21236;-62
2022/08/21 01:18:20;;;;;;;2.90;2.60;;;;;;;;;;4507869;28;20605;-61
2022/08/21 01:20:31;;;;;;;4.00;2.38;;;;;;;;;;4508420;28;20137;-61
2022/08/21 01:22:42;;;;;;;3.80;2.80;;;;;;;;;;4505634;28;20038;-62
2022/08/21 01:24:53;;;;;;;3.50;2.50;;;;;;;;;;4508116;28;20041;-62
2022/08/21 01:27:03;;;;;;;3.75;2.58;;;;;;;;;;4506576;28;20052;-61
2022/08/21 01:29:38;;;;;;;3.60;2.40;;;;;;;;;;4508492;28;20053;-61
2022/08/21 01:31:49;;;;;;;3.00;2.60;;;;;;;;;;4507297;28;20040;-61
2022/08/21 01:34:00;;;;;;;3.35;2.42;;;;;;;;;;4501642;28;20387;-62
2022/08/21 01:36:11;;;;;;;3.05;2.55;;;;;;;;;;4507062;28;20854;-62
2022/08/21 01:38:21;;;;;;;3.10;2.30;;;;;;;;;;4508019;28;20037;-61
2022/08/21 01:40:32;;;;;;;3.40;2.28;;;;;;;;;;4507435;28;20475;-61
2022/08/21 01:42:43;;;;;;;3.45;2.60;;;;;;;;;;4503093;28;20038;-61
2022/08/21 01:44:54;;;;;;;4.15;2.20;;;;;;;;;;4503930;28;20048;-62
2022/08/21 01:47:07;;;;;;;2.42;2.20;;;;;;;;;;4509467;28;20032;-61
2022/08/21 01:49:18;;;;;;;2.45;2.25;;;;;;;;;;4508261;28;20424;-62
2022/08/21 01:51:29;;;;;;;3.20;2.40;;;;;;;;;;4508523;28;20025;-61
2022/08/21 01:53:40;;;;;;;4.05;2.58;;;;;;;;;;4508887;28;20038;-61
2022/08/21 01:55:50;;;;;;;3.22;2.47;;;;;;;;;;4505997;28;20040;-61
2022/08/21 01:58:01;;;;;;;2.95;2.30;;;;;;;;;;4490923;28;20524;-62
2022/08/21 02:00:13;;;;;;;3.13;2.40;;;;;;;;;;4507315;28;20062;-61
2022/08/21 02:02:24;;;;;;;2.75;2.35;;;;;;;;;;4504729;28;20060;-61
2022/08/21 02:04:35;;;;;;;3.22;2.38;;;;;;;;;;4506470;28;20149;-61
2022/08/21 02:06:46;;;;;;;3.15;2.28;;;;;;;;;;4520427;28;20148;-61
2022/08/21 02:08:56;;;;;;;2.97;2.30;;;;;;;;;;4507153;28;20030;-61
2022/08/21 02:11:06;;;;;;;2.72;2.20;;;;;;;;;;4506935;28;20033;-62
2022/08/21 02:13:17;;;;;;;3.30;2.40;;;;;;;;;;4500268;28;20637;-61
2022/08/21 02:15:29;;;;;;;2.92;2.10;;;;;;;;;;4508729;28;20080;-62
2022/08/21 02:17:49;;;;;;;3.17;2.35;;;;;;;;;;4507144;28;20603;-61
2022/08/21 02:19:59;;;;;;;3.92;2.70;;;;;;;;;;4507083;28;20033;-62
2022/08/21 02:22:10;;;;;;;4.78;2.72;;;;;;;;;;4505794;28;20021;-61
2022/08/21 02:24:20;;;;;;;3.60;2.70;;;;;;;;;;4506905;28;20038;-62
2022/08/21 02:26:31;;;;;;;3.35;2.60;;;;;;;;;;4505939;28;21553;-61
2022/08/21 02:28:42;;;;;;;3.17;2.70;;;;;;;;;;4508247;28;20599;-61
2022/08/21 02:30:53;;;;;;;2.88;2.38;;;;;;;;;;4508364;28;20045;-62
2022/08/21 02:33:06;;;;;;;3.58;2.70;;;;;;;;;;4507520;28;20046;-62
2022/08/21 02:35:18;;;;;;;3.75;2.60;;;;;;;;;;4506061;28;20070;-61
2022/08/21 02:37:28;;;;;;;3.30;2.47;;;;;;;;;;4507595;28;20072;-63
2022/08/21 02:39:39;;;;;;;2.95;2.60;;;;;;;;;;4508882;28;20048;-61
2022/08/21 02:41:49;;;;;;;2.85;2.40;;;;;;;;;;4509246;28;20041;-61
2022/08/21 02:43:59;;;;;;;3.28;2.53;;;;;;;;;;4508604;28;20069;-62
2022/08/21 02:46:12;;;;;;;4.75;3.00;;;;;;;;;;4510635;28;20025;-62
2022/08/21 02:48:25;;;;;;;3.42;2.42;;;;;;;;;;4506417;28;20129;-61
2022/08/21 02:50:41;;;;;;;3.47;2.80;;;;;;;;;;4506773;28;20037;-61
2022/08/21 02:52:52;;;;;;;3.28;2.58;;;;;;;;;;4508009;28;20624;-61
2022/08/21 02:55:03;;;;;;;3.33;2.55;;;;;;;;;;4506915;28;20037;-62
2022/08/21 02:57:13;;;;;;;3.58;2.90;;;;;;;;;;4508369;28;20042;-61
2022/08/21 02:59:24;;;;;;;3.33;2.30;;;;;;;;;;4506999;28;20713;-61
2022/08/21 03:01:34;;;;;;;3.90;2.70;;;;;;;;;;4506726;28;20510;-61
2022/08/21 03:03:47;;;;;;;3.08;2.60;;;;;;;;;;4516667;28;20060;-61
2022/08/21 03:05:57;;;;;;;3.63;2.67;;;;;;;;;;4507992;28;20037;-62
2022/08/21 03:08:10;;;;;;;3.08;2.42;;;;;;;;;;4507897;28;20096;-61
2022/08/21 03:10:21;;;;;;;3.05;2.55;;;;;;;;;;4506927;28;21040;-62
2022/08/21 03:12:32;;;;;;;3.08;2.50;;;;;;;;;;4502400;28;20345;-62
2022/08/21 03:14:42;;;;;;;4.88;3.22;;;;;;;;;;4506634;28;21009;-62
2022/08/21 03:16:53;;;;;;;3.10;2.80;;;;;;;;;;4508358;28;20044;-62
2022/08/21 03:19:03;;;;;;;3.55;2.53;;;;;;;;;;4507388;28;20395;-62
2022/08/21 03:21:14;;;;;;;3.53;2.60;;;;;;;;;;4506896;28;20041;-62
2022/08/21 03:23:24;;;;;;;4.03;2.85;;;;;;;;;;4506015;28;20054;-62
2022/08/21 03:25:35;;;;;;;2.60;2.38;;;;;;;;;;4506885;28;20065;-61
2022/08/21 03:27:47;;;;;;;2.92;2.63;;;;;;;;;;4506724;28;20034;-62
2022/08/21 03:29:58;;;;;;;3.60;2.50;;;;;;;;;;4508613;28;20025;-61
2022/08/21 03:32:09;;;;;;;3.45;2.75;;;;;;;;;;4508739;28;20826;-62
2022/08/21 03:34:20;;;;;;;4.10;2.63;;;;;;;;;;4507717;28;20112;-61
2022/08/21 03:36:31;;;;;;;3.70;2.70;;;;;;;;;;4505404;28;20033;-62
2022/08/21 03:38:41;;;;;;;3.30;2.60;;;;;;;;;;4504343;28;20038;-62
2022/08/21 03:40:52;;;;;;;4.22;2.70;;;;;;;;;;4501933;28;20116;-61
2022/08/21 03:43:02;;;;;;;4.28;2.90;;;;;;;;;;4506003;28;20037;-61
2022/08/21 03:45:15;;;;;;;3.83;2.80;;;;;;;;;;4508176;28;20072;-62
2022/08/21 03:47:25;;;;;;;4.28;3.20;;;;;;;;;;4505806;28;20021;-62
2022/08/21 03:49:37;;;;;;;4.57;2.80;;;;;;;;;;4505063;28;20042;-62
2022/08/21 03:51:47;;;;;;;3.65;2.60;;;;;;;;;;4507376;28;20034;-61
2022/08/21 03:53:58;;;;;;;3.88;2.70;;;;;;;;;;4505341;28;20512;-62
2022/08/21 03:56:08;;;;;;;3.35;2.72;;;;;;;;;;4506676;28;20183;-62
2022/08/21 03:58:21;;;;;;;3.85;2.60;;;;;;;;;;4508194;28;20135;-62
2022/08/21 04:00:32;;;;;;;3.60;2.72;;;;;;;;;;4488013;28;20034;-62
2022/08/21 04:02:45;;;;;;;3.55;2.58;;;;;;;;;;4507658;28;20041;-62
2022/08/21 04:04:56;;;;;;;4.22;2.78;;;;;;;;;;4499948;28;20061;-62
2022/08/21 04:07:06;;;;;;;2.97;2.50;;;;;;;;;;4507648;28;20466;-61
2022/08/21 04:09:18;;;;;;;3.67;2.67;;;;;;;;;;4507564;28;20753;-63
2022/08/21 04:11:28;;;;;;;3.20;2.55;;;;;;;;;;4508507;28;20123;-63
2022/08/21 04:13:40;;;;;;;3.90;2.70;;;;;;;;;;4509489;28;20095;-62
2022/08/21 04:15:50;;;;;;;3.45;2.72;;;;;;;;;;4510068;28;21549;-63
2022/08/21 04:18:03;;;;;;;4.25;2.60;;;;;;;;;;4511540;28;20042;-60
2022/08/21 04:20:15;;;;;;;3.70;2.47;;;;;;;;;;4503149;28;20081;-60
2022/08/21 04:22:26;;;;;;;3.70;2.45;;;;;;;;;;4503709;28;20116;-61
2022/08/21 04:24:37;;;;;;;2.95;2.47;;;;;;;;;;4510629;28;20025;-60
2022/08/21 04:26:47;;;;;;;2.78;2.20;;;;;;;;;;4509189;28;20380;-61
2022/08/21 04:28:58;;;;;;;4.00;2.67;;;;;;;;;;4511363;28;20022;-61
2022/08/21 04:31:09;;;;;;;2.50;2.30;;;;;;;;;;4509292;28;20049;-61
2022/08/21 04:33:20;;;;;;;3.90;2.58;;;;;;;;;;4510616;28;20042;-60
2022/08/21 04:35:31;;;;;;;3.35;2.33;;;;;;;;;;4509782;28;20149;-60
2022/08/21 04:37:42;;;;;;;3.30;2.35;;;;;;;;;;4508439;28;20061;-61
2022/08/21 04:39:56;;;;;;;3.35;2.45;;;;;;;;;;4508532;28;20421;-60
2022/08/21 04:42:07;;;;;;;3.80;2.42;;;;;;;;;;4509944;28;20033;-61
2022/08/21 04:44:18;;;;;;;4.40;2.75;;;;;;;;;;4504967;28;20042;-60
2022/08/21 04:46:28;;;;;;;3.20;2.50;;;;;;;;;;4510328;28;20030;-61
2022/08/21 04:48:39;;;;;;;2.50;2.20;;;;;;;;;;4508194;28;20448;-61
2022/08/21 04:50:53;;;;;;;3.20;2.55;;;;;;;;;;4509002;28;20030;-63
2022/08/21 04:53:05;;;;;;;4.20;2.40;;;;;;;;;;4510979;28;20037;-60
2022/08/21 04:55:17;;;;;;;2.35;2.03;;;;;;;;;;4507861;28;20041;-60
2022/08/21 04:57:28;;;;;;;3.25;2.50;;;;;;;;;;4509006;28;20034;-61
2022/08/21 04:59:41;;;;;;;2.83;2.20;;;;;;;;;;4508621;28;20547;-61
2022/08/21 05:01:56;;;;;;;2.67;2.33;;;;;;;;;;4508826;28;20037;-61
2022/08/21 05:04:09;;;;;;;3.60;2.33;;;;;;;;;;4501169;28;20826;-61
2022/08/21 05:06:19;;;;;;;2.88;2.33;;;;;;;;;;4508417;28;20132;-61
2022/08/21 05:08:30;;;;;;;2.65;2.22;;;;;;;;;;4502147;28;20163;-60
2022/08/21 05:10:42;;;;;;;2.70;2.25;;;;;;;;;;4511302;28;20037;-61
2022/08/21 05:12:54;;;;;;;3.05;2.17;;;;;;;;;;4509212;28;20034;-59
2022/08/21 05:15:05;;;;;;;3.15;2.42;;;;;;;;;;4505780;28;20030;-61
2022/08/21 05:17:15;;;;;;;2.95;2.28;;;;;;;;;;4507223;28;20488;-61
2022/08/21 05:19:26;;;;;;;2.88;2.47;;;;;;;;;;4508387;28;20045;-60
2022/08/21 05:21:40;;;;;;;2.92;2.38;;;;;;;;;;4518936;28;20075;-61
2022/08/21 05:23:50;;;;;;;3.42;2.45;;;;;;;;;;4506439;28;20033;-61
2022/08/21 05:26:01;;;;;;;3.00;2.28;;;;;;;;;;4509173;28;20523;-60
2022/08/21 05:28:12;;;;;;;2.55;2.13;;;;;;;;;;4491318;28;20080;-60
2022/08/21 05:30:22;;;;;;;3.38;2.47;;;;;;;;;;4508357;28;20037;-60
2022/08/21 05:32:33;;;;;;;2.88;2.28;;;;;;;;;;4508621;28;20087;-60
2022/08/21 05:34:44;;;;;;;2.80;2.38;;;;;;;;;;4508318;28;20036;-62
2022/08/21 05:36:54;;;;;;;3.15;2.40;;;;;;;;;;4508432;28;20097;-62
2022/08/21 05:39:05;;;;;;;3.10;2.33;;;;;;;;;;4506695;28;20034;-62
2022/08/21 05:41:16;;;;;;;3.20;2.20;;;;;;;;;;4507418;28;20092;-62
2022/08/21 05:43:26;;;;;;;2.40;2.20;;;;;;;;;;4503821;28;20037;-62
2022/08/21 05:45:37;;;;;;;2.88;2.20;;;;;;;;;;4507644;28;20394;-65
2022/08/21 05:47:47;;;;;;;3.95;2.60;;;;;;;;;;4506674;28;20076;-66
2022/08/21 05:49:58;;;;;;;3.63;2.60;;;;;;;;;;4509683;28;20249;-63
2022/08/21 05:52:08;;;;;;;3.28;2.53;;;;;;;;;;4508688;28;20096;-62
2022/08/21 05:54:19;;;;;;;3.55;2.53;;;;;;;;;;4508048;28;20046;-63
2022/08/21 05:56:30;;;;;;;3.85;2.20;;;;;;;;;;4506897;28;20105;-62
2022/08/21 05:58:41;;;;;;;3.05;2.40;;;;;;;;;;4509235;28;20185;-63
2022/08/21 06:00:52;;;;;;;3.92;2.78;;;;;;;;;;4509785;28;21482;-61
2022/08/21 06:03:03;;;;;;;3.30;2.72;;;;;;;;;;4508664;28;20049;-60
2022/08/21 06:05:13;;;;;;;5.20;2.90;;;;;;;;;;4508556;28;20057;-61
2022/08/21 06:07:24;;;;;;;4.93;3.13;;;;;;;;;;4507883;28;20029;-61
2022/08/21 06:09:34;;;;;;;5.32;3.03;;;;;;;;;;4506740;28;20097;-61
2022/08/21 06:11:45;;;;;;;4.05;2.67;;;;;;;;;;4506687;28;20046;-61
2022/08/21 06:13:55;;;;;;;5.60;3.28;;;;;;;;;;4509712;28;20117;-61
2022/08/21 06:16:10;;;;;;;3.10;2.70;;;;;;;;;;4507127;28;20088;-61
2022/08/21 06:18:20;;;;;;;3.70;2.60;;;;;;;;;;4506778;28;20029;-61
2022/08/21 06:20:31;;;;;;;3.70;2.40;;;;;;;;;;4506860;28;20790;-66
2022/08/21 06:22:42;;;;;;;4.00;2.72;;;;;;;;;;4507509;28;20025;-65
2022/08/21 06:24:53;;;;;;;4.03;2.75;;;;;;;;;;4509394;28;20050;-65
2022/08/21 06:27:05;;;;;;;3.40;2.45;;;;;;;;;;4503245;28;20034;-65
2022/08/21 06:29:17;;;;;;;3.60;2.72;;;;;;;;;;4519316;28;20033;-65
2022/08/21 06:31:28;;;;;;;3.47;2.50;;;;;;;;;;4505487;28;20045;-65
2022/08/21 06:33:39;;;;;;;3.17;2.50;;;;;;;;;;4509486;28;20038;-65
2022/08/21 06:35:49;;;;;;;2.88;2.40;;;;;;;;;;4506500;28;20053;-64
2022/08/21 06:38:01;;;;;;;2.50;1.92;;;;;;;;;;4490821;28;20034;-65
2022/08/21 06:40:11;;;;;;;4.68;2.50;;;;;;;;;;4519840;28;20030;-65
2022/08/21 06:42:22;;;;;;;3.92;2.63;;;;;;;;;;4508090;28;20123;-66
2022/08/21 06:44:33;;;;;;;4.63;2.30;;;;;;;;;;4507509;28;20093;-65
2022/08/21 06:46:43;;;;;;;3.42;2.17;;;;;;;;;;4510170;28;20033;-65
2022/08/21 06:48:54;;;;;;;3.80;2.38;;;;;;;;;;4509313;28;20069;-65
2022/08/21 06:51:05;;;;;;;4.47;2.58;;;;;;;;;;4503479;28;20079;-65
2022/08/21 06:53:20;;;;;;;3.95;2.15;;;;;;;;;;4505936;28;20141;-65
2022/08/21 06:55:32;;;;;;;4.97;2.65;;;;;;;;;;4505645;28;21222;-66
2022/08/21 06:57:42;;;;;;;3.15;2.50;;;;;;;;;;4507208;28;20034;-65
2022/08/21 06:59:53;;;;;;;2.33;2.10;;;;;;;;;;4507420;28;20041;-64
2022/08/21 07:02:03;;;;;;;3.83;2.40;;;;;;;;;;4509612;28;20108;-66
2022/08/21 07:04:14;;;;;;;2.72;2.13;;;;;;;;;;4507737;28;20091;-65
2022/08/21 07:06:24;;;;;;;2.92;2.22;;;;;;;;;;4503146;28;20034;-65
2022/08/21 07:08:36;;;;;;;3.58;2.20;;;;;;;;;;4507497;28;20065;-66
2022/08/21 07:10:48;;;;;;;3.25;2.53;;;;;;;;;;4506164;28;20582;-66
2022/08/21 07:12:58;;;;;;;3.13;2.38;;;;;;;;;;4507351;28;20032;-66
2022/08/21 07:15:09;;;;;;;4.03;2.30;;;;;;;;;;4506646;28;20057;-65
2022/08/21 07:17:19;;;;;;;2.95;2.10;;;;;;;;;;4506726;28;20131;-66
2022/08/21 07:19:30;;;;;;;3.47;2.10;;;;;;;;;;4508644;28;20116;-66
2022/08/21 07:21:40;;;;;;;3.83;2.30;;;;;;;;;;4502980;28;20113;-65
2022/08/21 07:23:51;;;;;;;4.18;2.60;;;;;;;;;;4508391;28;20579;-64
2022/08/21 07:26:02;;;;;;;2.75;2.08;;;;;;;;;;4507168;28;20045;-64
2022/08/21 07:28:13;;;;;;;3.03;2.08;;;;;;;;;;4505739;28;20191;-64
2022/08/21 07:30:23;;;;;;;2.60;2.08;;;;;;;;;;4507996;28;20030;-64
2022/08/21 07:32:34;;;;;;;2.72;1.98;;;;;;;;;;4505647;28;20107;-63
2022/08/21 07:34:44;;;;;;;3.00;2.30;;;;;;;;;;4506037;28;20038;-64
2022/08/21 07:36:56;;;;;;;2.60;2.28;;;;;;;;;;4508573;28;20566;-65
2022/08/21 07:39:07;;;;;;;3.58;1.95;;;;;;;;;;4505081;28;21006;-60
2022/08/21 07:41:23;;;;;;;2.05;1.30;;;;;;;;;;4507278;28;20037;-60
2022/08/21 07:43:34;;;;;;;2.67;1.63;;;;;;;;;;4508452;28;20190;-60
2022/08/21 07:45:45;;;;;;;3.15;1.77;;;;;;;;;;4510153;28;20125;-59
2022/08/21 07:47:55;;;;;;;4.13;1.85;;;;;;;;;;4507475;28;20081;-60
2022/08/21 07:50:07;;;;;;;3.08;1.95;;;;;;;;;;4508273;28;20053;-59
2022/08/21 07:52:17;;;;;;;2.30;1.60;;;;;;;;;;4506736;28;20596;-60
2022/08/21 07:54:27;;;;;;;2.28;1.60;;;;;;;;;;4506193;28;20310;-59
2022/08/21 07:56:38;;;;;;;2.13;1.55;;;;;;;;;;4506341;28;20546;-59
2022/08/21 07:58:48;;;;;;;2.58;1.70;;;;;;;;;;4506012;28;20939;-60
2022/08/21 08:00:59;;;;;;;3.33;1.70;;;;;;;;;;4516480;28;20029;-59
2022/08/21 08:03:10;;;;;;;2.42;1.88;;;;;;;;;;4503101;28;20042;-60
2022/08/21 08:05:23;;;;;;;2.90;1.65;;;;;;;;;;4505255;28;20038;-59
2022/08/21 08:07:35;;;;;;;3.15;1.90;;;;;;;;;;4508515;28;20049;-59
2022/08/21 08:09:46;;;;;;;2.85;1.90;;;;;;;;;;4506051;28;21176;-59
2022/08/21 08:11:56;;;;;;;2.20;1.50;;;;;;;;;;4506710;28;20092;-59
2022/08/21 08:14:06;;;;;;;3.55;2.00;;;;;;;;;;4507608;28;20043;-59
2022/08/21 08:16:18;;;;;;;2.67;1.70;;;;;;;;;;4506055;28;20133;-60
2022/08/21 08:18:28;;;;;;;3.75;1.98;;;;;;;;;;4506429;28;20045;-59
2022/08/21 08:20:40;;;;;;;2.50;1.67;;;;;;;;;;4507561;28;20046;-60
2022/08/21 08:22:51;;;;;;;3.13;1.88;;;;;;;;;;4505840;28;20113;-59
2022/08/21 08:25:02;;;;;;;2.38;1.90;;;;;;;;;;4506355;28;20049;-60
2022/08/21 08:27:12;;;;;;;2.58;1.88;;;;;;;;;;4504425;28;20068;-59
2022/08/21 08:29:23;;;;;;;3.00;2.00;;;;;;;;;;4500199;28;20049;-59
2022/08/21 08:31:33;;;;;;;2.67;1.65;;;;;;;;;;4505747;28;20029;-59
2022/08/21 08:33:43;;;;;;;2.83;1.98;;;;;;;;;;4506450;28;20033;-59
2022/08/21 08:35:54;;;;;;;2.50;1.90;;;;;;;;;;4505135;28;20169;-60
2022/08/21 08:38:05;;;;;;;2.90;1.85;;;;;;;;;;4505054;28;20557;-59
2022/08/21 08:40:37;;;;;;;2.72;1.90;;;;;;;;;;4504987;28;20068;-59
2022/08/21 08:42:50;;;;;;;2.08;1.80;;;;;;;;;;4504495;28;20048;-60
2022/08/21 08:45:05;;;;;;;2.70;2.03;;;;;;;;;;4504977;28;20028;-60
2022/08/21 08:47:17;;;;;;;2.65;1.90;;;;;;;;;;4504749;28;20034;-59
2022/08/21 08:49:42;;;;;;;3.35;1.90;;;;;;;;;;4508184;28;20134;-59
2022/08/21 08:51:56;;;;;;;3.78;1.80;;;;;;;;;;4501195;28;20042;-60
2022/08/21 08:54:14;;;;;;;3.20;2.00;;;;;;;;;;4505813;28;20044;-60
2022/08/21 08:56:30;;;;;;;3.50;1.88;;;;;;;;;;4500824;28;20641;-59
2022/08/21 08:58:43;;;;;;;2.78;1.80;;;;;;;;;;4509390;28;20614;-59
2022/08/21 09:00:54;;;;;;;3.65;1.80;;;;;;;;;;4509735;28;20038;-59
2022/08/21 09:03:05;;;;;;;2.00;1.58;;;;;;;;;;4504494;28;20033;-60
2022/08/21 09:05:25;;;;;;;3.72;1.60;;;;;;;;;;4522743;28;20029;-59
2022/08/21 09:07:45;;;;;;;1.80;1.38;;;;;;;;;;4504714;28;20106;-59
2022/08/21 09:10:23;;;;;;;2.15;1.48;;;;;;;;;;4508602;28;20065;-59
2022/08/21 09:12:45;;;;;;;2.72;1.40;;;;;;;;;;4504841;28;20061;-59
2022/08/21 09:15:06;;;;;;;2.88;1.30;;;;;;;;;;4508729;28;20033;-59
2022/08/21 09:17:23;;;;;;;2.78;1.33;;;;;;;;;;4507408;28;21415;-60
2022/08/21 09:19:36;;;;;;;3.35;1.50;;;;;;;;;;4507051;28;20030;-59
2022/08/21 09:22:07;;;;;;;3.65;1.52;;;;;;;;;;4506454;28;20034;-58
2022/08/21 09:24:25;;;;;;;2.03;1.45;;;;;;;;;;4509359;28;20042;-60
2022/08/21 09:26:45;;;;;;;2.08;1.30;;;;;;;;;;4509077;28;20069;-59
2022/08/21 09:28:58;;;;;;;2.10;1.40;;;;;;;;;;4521662;28;20120;-60
2022/08/21 09:31:25;;;;;;;2.05;1.67;;;;;;;;;;4509033;28;20060;-60
2022/08/21 09:33:35;;;;;;;1.88;1.40;;;;;;;;;;4503307;28;20072;-59
2022/08/21 09:35:57;;;;;;;3.13;1.60;;;;;;;;;;4506947;28;20096;-59
2022/08/21 09:38:07;;;;;;;2.47;1.70;;;;;;;;;;4509132;28;20061;-59
2022/08/21 09:40:20;;;;;;;1.98;1.40;;;;;;;;;;4509119;28;20528;-59
2022/08/21 09:42:32;;;;;;;2.63;1.50;;;;;;;;;;4507243;28;20511;-60
2022/08/21 09:44:43;;;;;;;2.85;1.63;;;;;;;;;;4507240;28;20045;-59
2022/08/21 09:46:54;;;;;;;2.22;1.70;;;;;;;;;;4510351;28;20141;-59
2022/08/21 09:49:05;;;;;;;2.55;1.60;;;;;;;;;;4507233;28;20034;-60
2022/08/21 09:51:18;;;;;;;2.33;1.45;;;;;;;;;;4507835;28;20478;-60
2022/08/21 09:53:30;;;;;;;1.80;1.40;;;;;;;;;;4508120;28;20120;-60
2022/08/21 09:58:37;;;;;;;2.85;1.70;;;;;;;;;;4507200;28;20041;-60
2022/08/21 10:00:57;;;;;;;2.05;1.23;;;;;;;;;;4505382;28;20829;-60
2022/08/21 10:03:18;;;;;;;2.65;1.20;;;;;;;;;;4510919;28;20112;-59
2022/08/21 10:05:29;;;;;;;1.23;1.08;;;;;;;;;;4508467;28;20033;-60
2022/08/21 10:07:39;;;;;;;1.40;0.93;;;;;;;;;;4511331;28;20042;-60
2022/08/21 10:10:00;;;;;;;2.30;1.00;;;;;;;;;;4508754;28;20053;-60
2022/08/21 10:12:23;;;;;;;2.40;1.25;;;;;;;;;;4509747;28;20109;-60
2022/08/21 10:14:57;;;;;;;1.75;1.17;;;;;;;;;;4507783;28;20041;-60
2022/08/21 10:17:22;;;;;;;1.77;1.30;;;;;;;;;;4508466;28;20049;-60
2022/08/21 10:19:53;;;;;;;2.45;1.27;;;;;;;;;;4507741;28;20073;-60
2022/08/21 10:22:22;;;;;;;2.60;1.23;;;;;;;;;;4506936;28;20132;-60
2022/08/21 10:24:36;;;;;;;2.17;1.20;;;;;;;;;;4520028;28;20033;-59
2022/08/21 10:26:52;;;;;;;1.40;1.10;;;;;;;;;;4509874;28;20586;-59
2022/08/21 10:29:12;;;;;;;2.10;1.10;;;;;;;;;;4507840;28;20038;-59
2022/08/21 10:31:38;;;;;;;1.77;1.20;;;;;;;;;;4504717;28;20041;-59
2022/08/21 10:34:06;;;;;;;1.98;1.25;;;;;;;;;;4509122;28;20042;-59
2022/08/21 10:36:37;;;;;;;2.25;1.30;;;;;;;;;;4508224;28;20053;-59
2022/08/21 10:39:05;;;;;;;2.17;1.30;;;;;;;;;;4503454;28;20034;-60
2022/08/21 10:41:46;;;;;;;2.13;1.40;;;;;;;;;;4508490;28;20025;-60
2022/08/21 10:44:11;;;;;;;2.08;1.30;;;;;;;;;;4509902;28;20358;-59
2022/08/21 10:46:46;;;;;;;2.72;1.30;;;;;;;;;;4509941;28;20064;-61
2022/08/21 10:49:17;;;;;;;2.42;1.30;;;;;;;;;;4506328;28;20156;-60
2022/08/21 10:51:50;;;;;;;2.50;1.45;;;;;;;;;;4509315;28;20037;-59
2022/08/21 10:54:09;;;;;;;2.85;1.40;;;;;;;;;;4509850;28;20143;-60
2022/08/21 10:56:40;;;;;;;2.20;1.20;;;;;;;;;;4508048;28;20046;-59
2022/08/21 10:58:51;;;;;;;1.75;1.20;;;;;;;;;;4504741;28;20120;-59
2022/08/21 11:01:12;;;;;;;2.08;1.30;;;;;;;;;;4506785;28;20045;-60
2022/08/21 11:03:30;;;;;;;1.30;1.10;;;;;;;;;;4491107;28;20085;-59
2022/08/21 11:05:55;;;;;;;1.88;1.40;;;;;;;;;;4506652;28;20037;-60
2022/08/21 11:08:15;;;;;;;2.20;1.30;;;;;;;;;;4503814;28;20088;-59
2022/08/21 11:10:29;;;;;;;1.92;1.20;;;;;;;;;;4506814;28;20598;-63
2022/08/21 11:12:55;;;;;;;2.20;1.20;;;;;;;;;;4505969;28;20057;-61
2022/08/21 11:15:26;;;;;;;2.53;1.40;;;;;;;;;;4505395;28;20038;-61
2022/08/21 11:17:43;;;;;;;2.42;1.50;;;;;;;;;;4507978;28;20041;-61
2022/08/21 11:20:04;;;;;;;1.67;1.05;;;;;;;;;;4508824;28;20630;-61
2022/08/21 11:22:35;;;;;;;2.70;1.35;;;;;;;;;;4503452;28;20029;-60
2022/08/21 11:24:55;;;;;;;2.33;1.30;;;;;;;;;;4491969;28;20535;-61
2022/08/21 11:27:17;;;;;;;2.00;1.40;;;;;;;;;;4484316;28;20357;-60
2022/08/21 11:29:35;;;;;;;2.47;1.30;;;;;;;;;;4502407;28;20121;-62
2022/08/21 11:32:04;;;;;;;1.80;1.30;;;;;;;;;;4507124;28;20526;-62
2022/08/21 11:34:18;;;;;;;2.05;1.20;;;;;;;;;;4507210;28;20115;-62
2022/08/21 11:36:43;;;;;;;2.33;1.30;;;;;;;;;;4502419;28;20030;-62
2022/08/21 11:39:02;;;;;;;2.00;1.20;;;;;;;;;;4508170;28;20040;-64
2022/08/21 11:41:24;;;;;;;2.00;1.25;;;;;;;;;;4506568;28;20033;-61
2022/08/21 11:43:45;;;;;;;1.85;1.20;;;;;;;;;;4504458;28;20646;-61
2022/08/21 11:46:13;;;;;;;2.35;1.10;;;;;;;;;;4489134;28;20045;-60
2022/08/21 11:48:53;;;;;;;1.88;1.10;;;;;;;;;;4507569;28;20038;-62
2022/08/21 11:51:07;;;;;;;2.28;1.30;;;;;;;;;;4502627;28;20663;-61
2022/08/21 11:53:28;;;;;;;1.50;1.40;;;;;;;;;;4503466;28;20030;-61
2022/08/21 11:56:11;;;;;;;2.40;1.30;;;;;;;;;;4475606;28;20035;-61
2022/08/21 11:58:32;;;;;;;3.20;1.50;;;;;;;;;;4501997;28;20045;-62
2022/08/21 12:00:54;;;;;;;2.35;1.63;;;;;;;;;;4500013;28;20649;-61
2022/08/21 12:03:10;;;;;;;1.73;1.33;;;;;;;;;;4507638;28;20084;-61
2022/08/21 12:05:34;;;;;;;1.77;1.20;;;;;;;;;;4506000;28;20030;-61
2022/08/21 12:07:45;;;;;;;2.05;1.20;;;;;;;;;;4507715;28;20030;-61
2022/08/21 12:09:57;;;;;;;3.03;1.60;;;;;;;;;;4506512;28;20434;-61
2022/08/21 12:12:22;;;;;;;1.35;1.20;;;;;;;;;;4505633;28;20039;-61
2022/08/21 12:14:47;;;;;;;1.40;1.30;;;;;;;;;;4516781;28;20131;-61
2022/08/21 12:17:05;;;;;;;2.03;1.42;;;;;;;;;;4507282;28;20618;-61
2022/08/21 12:19:24;;;;;;;2.03;1.50;;;;;;;;;;4507920;28;20736;-61
2022/08/21 12:21:52;;;;;;;1.45;1.20;;;;;;;;;;4509840;28;20037;-61
2022/08/21 12:24:20;;;;;;;1.48;1.27;;;;;;;;;;4502990;28;20038;-63
2022/08/21 12:26:35;;;;;;;2.90;1.60;;;;;;;;;;4505302;28;20068;-61
2022/08/21 12:28:45;;;;;;;1.90;1.42;;;;;;;;;;4507486;28;20096;-61
2022/08/21 12:30:57;;;;;;;1.73;1.40;;;;;;;;;;4508716;28;20049;-61
2022/08/21 12:33:34;;;;;;;1.98;1.50;;;;;;;;;;4487754;28;20881;-61
2022/08/21 12:35:45;;;;;;;1.50;1.25;;;;;;;;;;4476679;28;20580;-61
2022/08/21 12:38:18;;;;;;;1.80;1.20;;;;;;;;;;4510411;28;20034;-61
2022/08/21 12:40:41;;;;;;;1.33;1.13;;;;;;;;;;4510801;28;20049;-61
2022/08/21 12:42:54;;;;;;;2.00;1.17;;;;;;;;;;4510896;28;20142;-61
2022/08/21 12:45:17;;;;;;;1.85;1.10;;;;;;;;;;4509921;28;20036;-61
2022/08/21 12:47:34;;;;;;;1.27;1.17;;;;;;;;;;4504685;28;20040;-62
2022/08/21 12:50:01;;;;;;;1.23;1.00;;;;;;;;;;4507334;28;20038;-61
2022/08/21 12:52:24;;;;;;;1.40;1.00;;;;;;;;;;4521417;28;20034;-61
2022/08/21 12:54:43;;;;;;;2.67;1.00;;;;;;;;;;4505542;28;20037;-61
2022/08/21 12:57:02;;;;;;;1.63;1.05;;;;;;;;;;4507482;28;20563;-61
2022/08/21 12:59:13;;;;;;;1.60;0.98;;;;;;;;;;4509402;28;20649;-61
2022/08/21 13:01:28;;;;;;;1.30;0.90;;;;;;;;;;4505215;28;20034;-62
2022/08/21 13:03:38;;;;;;;1.27;1.00;;;;;;;;;;4487918;28;20022;-60
2022/08/21 13:05:51;;;;;;;1.60;0.98;;;;;;;;;;4504181;28;20026;-60
2022/08/21 13:08:07;;;;;;;3.05;1.10;;;;;;;;;;4509034;28;20760;-61
2022/08/21 13:10:21;;;;;;;1.65;0.82;;;;;;;;;;4508819;28;20041;-60
2022/08/21 13:12:32;;;;;;;1.70;0.80;;;;;;;;;;4511415;28;20037;-60
2022/08/21 13:14:44;;;;;;;0.80;0.55;;;;;;;;;;4509849;28;20045;-61
2022/08/21 13:20:00;;;;;;;0.77;0.70;;;;;;;;;;5361631;23;20027;-69
2022/08/21 13:22:14;;;;;;;1.88;0.70;;;;;;;;;;4497344;28;20636;-70
2022/08/21 13:24:29;;;;;;;0.90;0.70;;;;;;;;;;4508660;28;20041;-67
2022/08/21 13:26:39;;;;;;;0.95;0.70;;;;;;;;;;4525215;28;20075;-67
2022/08/21 13:28:50;;;;;;;0.85;0.70;;;;;;;;;;4524813;28;20048;-64
2022/08/21 13:31:03;;;;;;;1.05;0.70;;;;;;;;;;4489403;28;20049;-61